createdAt,value
2022-08-17T00:01:51.504Z,21.70
2022-08-17T00:04:19.786Z,21.61
2022-08-17T00:06:49.433Z,21.62
2022-08-17T00:09:18.814Z,21.63
2022-08-17T00:12:34.650Z,21.55
2022-08-17T00:14:34.856Z,21.46
2022-08-17T00:17:01.324Z,21.29
2022-08-17T00:19:27.760Z,21.11
2022-08-17T00:22:32.472Z,21.01
2022-08-17T00:24:44.184Z,21.02
2022-08-17T00:27:10.597Z,21.15
2022-08-17T00:29:37.054Z,21.23
2022-08-17T00:33:14.907Z,21.35
2022-08-17T00:34:50.689Z,21.39
2022-08-17T00:37:17.127Z,21.37
2022-08-17T00:39:44.135Z,21.34
2022-08-17T00:42:16.103Z,21.31
2022-08-17T00:44:42.579Z,21.21
2022-08-17T00:47:09.081Z,21.18
2022-08-17T00:49:35.491Z,21.11
2022-08-17T00:52:11.838Z,21.07
2022-08-17T00:54:42.374Z,21.03
2022-08-17T00:57:31.254Z,20.99
2022-08-17T01:00:12.013Z,20.90
2022-08-17T01:02:43.183Z,20.85
2022-08-17T01:05:19.835Z,20.74
2022-08-17T01:07:50.644Z,20.71
2022-08-17T01:10:58.842Z,20.71
2022-08-17T01:13:10.722Z,20.69
2022-08-17T01:15:41.345Z,20.60
2022-08-17T01:18:13.740Z,20.53
2022-08-17T01:20:48.324Z,20.49
2022-08-17T01:23:20.451Z,20.43
2022-08-17T01:25:52.694Z,20.41
2022-08-17T01:28:33.656Z,20.43
2022-08-17T01:31:08.080Z,20.41
2022-08-17T01:33:35.182Z,20.29
2022-08-17T01:36:02.055Z,20.26
2022-08-17T01:38:31.657Z,20.24
2022-08-17T01:41:06.471Z,20.21
2022-08-17T01:43:39.592Z,20.19
2022-08-17T01:46:06.242Z,20.19
2022-08-17T01:48:35.211Z,20.23
2022-08-17T01:51:01.934Z,20.25
2022-08-17T01:53:34.191Z,20.19
2022-08-17T01:56:10.704Z,20.12
2022-08-17T01:58:39.434Z,20.02
2022-08-17T02:01:06.612Z,19.97
2022-08-17T02:03:35.284Z,19.90
2022-08-17T02:06:02.482Z,19.87
2022-08-17T02:08:38.653Z,19.81
2022-08-17T02:11:11.629Z,19.74
2022-08-17T02:13:39.090Z,19.70
2022-08-17T02:16:06.180Z,19.67
2022-08-17T02:18:33.003Z,19.65
2022-08-17T02:20:59.946Z,19.61
2022-08-17T02:23:29.212Z,19.64
2022-08-17T02:25:59.007Z,19.66
2022-08-17T02:28:26.070Z,19.67
2022-08-17T02:31:00.859Z,19.60
2022-08-17T02:33:42.048Z,19.64
2022-08-17T02:36:10.383Z,19.59
2022-08-17T02:38:38.204Z,19.60
2022-08-17T02:41:05.116Z,19.53
2022-08-17T02:43:31.844Z,19.43
2022-08-17T02:45:58.352Z,19.52
2022-08-17T02:48:28.168Z,19.54
2022-08-17T02:50:57.996Z,19.54
2022-08-17T02:53:24.496Z,19.56
2022-08-17T02:55:52.776Z,19.42
2022-08-17T02:58:34.999Z,19.45
2022-08-17T03:01:07.083Z,19.64
2022-08-17T03:03:34.822Z,19.68
2022-08-17T03:06:02.094Z,19.78
2022-08-17T03:08:28.936Z,19.60
2022-08-17T03:10:55.596Z,19.58
2022-08-17T03:13:22.407Z,19.65
2022-08-17T03:15:49.459Z,19.83
2022-08-17T03:18:25.286Z,19.97
2022-08-17T03:20:55.772Z,19.95
2022-08-17T03:23:23.777Z,19.90
2022-08-17T03:25:53.017Z,19.81
2022-08-17T03:28:20.510Z,19.70
2022-08-17T03:30:47.072Z,19.66
2022-08-17T03:33:14.651Z,19.83
2022-08-17T03:35:41.717Z,19.79
2022-08-17T03:38:10.197Z,19.60
2022-08-17T03:40:56.909Z,19.40
2022-08-17T03:43:24.158Z,19.29
2022-08-17T03:46:27.363Z,19.22
2022-08-17T03:49:14.972Z,19.19
2022-08-17T03:51:59.897Z,19.20
2022-08-17T03:54:44.694Z,19.14
2022-08-17T03:57:12.507Z,19.24
2022-08-17T03:59:39.392Z,19.36
2022-08-17T04:02:19.971Z,19.70
2022-08-17T04:04:46.881Z,19.68
2022-08-17T04:07:13.512Z,19.75
2022-08-17T04:09:40.068Z,19.62
2022-08-17T04:12:06.699Z,19.58
2022-08-17T04:14:49.491Z,19.61
2022-08-17T04:17:21.600Z,19.72
2022-08-17T04:19:48.045Z,19.74
2022-08-17T04:22:30.732Z,19.86
2022-08-17T04:25:13.740Z,20.01
2022-08-17T04:27:40.153Z,20.11
2022-08-17T04:30:07.430Z,20.18
2022-08-17T04:33:02.298Z,20.29
2022-08-17T04:35:37.913Z,20.25
2022-08-17T04:38:05.039Z,20.30
2022-08-17T04:40:50.720Z,20.37
2022-08-17T04:43:22.060Z,20.48
2022-08-17T04:45:56.352Z,20.44
2022-08-17T04:48:36.467Z,20.28
2022-08-17T04:51:09.884Z,20.21
2022-08-17T04:53:37.643Z,20.34
2022-08-17T04:56:04.421Z,20.46
2022-08-17T04:58:30.877Z,20.42
2022-08-17T05:00:57.574Z,20.45
2022-08-17T05:03:24.130Z,20.56
2022-08-17T05:05:50.767Z,20.47
2022-08-17T05:08:19.501Z,20.54
2022-08-17T05:10:47.248Z,20.66
2022-08-17T05:13:23.502Z,20.70
2022-08-17T05:15:54.865Z,20.78
2022-08-17T05:18:21.842Z,20.86
2022-08-17T05:20:52.367Z,20.96
2022-08-17T05:23:20.810Z,21.00
2022-08-17T05:25:50.413Z,20.98
2022-08-17T05:28:19.599Z,20.92
2022-08-17T05:30:51.947Z,20.91
2022-08-17T05:33:21.760Z,20.80
2022-08-17T05:35:50.383Z,20.86
2022-08-17T05:38:19.939Z,20.81
2022-08-17T05:40:47.010Z,20.96
2022-08-17T05:43:17.090Z,20.96
2022-08-17T05:46:07.844Z,20.92
2022-08-17T05:48:42.129Z,20.99
2022-08-17T05:51:23.721Z,21.18
2022-08-17T05:54:02.471Z,21.27
2022-08-17T05:56:50.831Z,21.46
2022-08-17T05:59:53.956Z,21.52
2022-08-17T06:02:42.064Z,21.55
2022-08-17T06:05:29.631Z,21.52
2022-08-17T06:08:34.086Z,21.64
2022-08-17T06:11:22.844Z,21.66
2022-08-17T06:14:11.546Z,21.69
2022-08-17T06:16:43.573Z,21.70
2022-08-17T06:19:27.738Z,21.59
2022-08-17T06:21:54.985Z,21.55
2022-08-17T06:24:35.134Z,21.58
2022-08-17T06:27:12.077Z,21.56
2022-08-17T06:29:48.805Z,21.62
2022-08-17T06:32:16.561Z,21.69
2022-08-17T06:34:46.942Z,21.45
2022-08-17T06:37:38.124Z,21.52
2022-08-17T06:40:37.268Z,21.33
2022-08-17T06:43:34.827Z,21.36
2022-08-17T06:46:14.337Z,21.41
2022-08-17T06:48:47.563Z,21.40
2022-08-17T06:51:29.927Z,21.40
2022-08-17T06:54:05.438Z,21.42
2022-08-17T06:56:54.602Z,21.34
2022-08-17T06:59:56.291Z,21.02
2022-08-17T07:02:56.954Z,21.12
2022-08-17T07:05:38.771Z,21.24
2022-08-17T07:08:27.698Z,21.19
2022-08-17T07:11:01.354Z,21.17
2022-08-17T07:13:29.568Z,21.26
2022-08-17T07:16:14.957Z,21.38
2022-08-17T07:18:41.762Z,21.43
2022-08-17T07:21:19.203Z,21.53
2022-08-17T07:24:29.683Z,21.61
2022-08-17T07:27:08.401Z,21.76
2022-08-17T07:29:45.225Z,21.75
2022-08-17T07:32:18.351Z,21.80
2022-08-17T07:35:02.596Z,21.82
2022-08-17T07:37:31.869Z,21.94
2022-08-17T07:40:14.836Z,21.90
2022-08-17T07:42:46.591Z,22.02
2022-08-17T07:45:34.643Z,22.16
2022-08-17T07:48:19.678Z,22.21
2022-08-17T07:50:49.561Z,22.09
2022-08-17T07:53:22.147Z,22.01
2022-08-17T07:55:50.210Z,21.90
2022-08-17T07:58:18.791Z,21.98
2022-08-17T08:00:46.658Z,21.98
2022-08-17T08:03:24.659Z,22.01
2022-08-17T08:05:56.665Z,22.01
2022-08-17T08:08:32.343Z,21.99
2022-08-17T08:11:30.225Z,22.04
2022-08-17T08:14:20.509Z,21.85
2022-08-17T08:17:09.205Z,21.65
2022-08-17T08:19:36.218Z,21.57
2022-08-17T08:22:11.314Z,21.58
2022-08-17T08:24:46.946Z,21.59
2022-08-17T08:27:43.899Z,21.66
2022-08-17T08:30:17.046Z,21.60
2022-08-17T08:33:04.136Z,21.63
2022-08-17T08:35:30.961Z,21.77
2022-08-17T08:38:34.430Z,21.84
2022-08-17T08:41:00.850Z,22.01
2022-08-17T08:43:56.226Z,22.06
2022-08-17T08:46:50.343Z,22.15
2022-08-17T08:50:03.404Z,22.24
2022-08-17T08:52:32.206Z,22.32
2022-08-17T08:55:10.894Z,22.32
2022-08-17T08:57:43.938Z,22.38
2022-08-17T09:00:22.987Z,22.57
2022-08-17T09:03:31.719Z,22.65
2022-08-17T09:06:32.602Z,22.73
2022-08-17T09:09:07.019Z,22.81
2022-08-17T09:12:01.474Z,22.90
2022-08-17T09:14:46.917Z,22.70
2022-08-17T09:17:18.389Z,22.55
2022-08-17T09:19:52.792Z,22.58
2022-08-17T09:22:33.305Z,22.54
2022-08-17T09:25:26.221Z,22.47
2022-08-17T09:28:00.772Z,22.31
2022-08-17T09:30:36.292Z,22.36
2022-08-17T09:33:08.374Z,22.15
2022-08-17T09:35:42.323Z,21.97
2022-08-17T09:38:08.761Z,21.71
2022-08-17T09:40:49.744Z,21.57
2022-08-17T09:43:27.615Z,21.26
2022-08-17T09:46:01.790Z,21.26
2022-08-17T09:48:38.991Z,21.21
2022-08-17T09:51:24.366Z,21.15
2022-08-17T09:53:51.344Z,21.10
2022-08-17T09:56:31.585Z,21.12
2022-08-17T09:59:17.117Z,21.02
2022-08-17T10:01:51.708Z,21.02
2022-08-17T10:04:29.317Z,20.99
2022-08-17T10:07:18.877Z,21.03
2022-08-17T10:10:03.359Z,20.99
2022-08-17T10:12:47.332Z,21.12
2022-08-17T10:15:33.426Z,20.89
2022-08-17T10:18:31.886Z,20.94
2022-08-17T10:21:43.206Z,21.10
2022-08-17T10:25:02.116Z,21.37
2022-08-17T10:27:41.198Z,21.99
2022-08-17T10:30:10.438Z,22.37
2022-08-17T10:32:45.243Z,22.67
2022-08-17T10:35:41.284Z,22.76
2022-08-17T10:38:37.042Z,22.68
2022-08-17T10:41:03.469Z,22.52
2022-08-17T10:43:38.868Z,22.46
2022-08-17T10:46:30.813Z,22.44
2022-08-17T10:49:20.935Z,22.20
2022-08-17T10:51:58.781Z,22.26
2022-08-17T10:54:25.125Z,22.17
2022-08-17T10:56:56.826Z,22.31
2022-08-17T10:59:53.953Z,22.24
2022-08-17T11:02:39.738Z,22.33
2022-08-17T11:05:30.393Z,22.45
2022-08-17T11:08:01.606Z,22.47
2022-08-17T11:11:00.098Z,22.54
2022-08-17T11:13:38.391Z,22.57
2022-08-17T11:16:21.891Z,22.75
2022-08-17T11:19:22.617Z,22.71
2022-08-17T11:22:19.810Z,22.80
2022-08-17T11:24:51.270Z,22.84
2022-08-17T11:27:33.109Z,22.74
2022-08-17T11:30:03.107Z,22.66
2022-08-17T11:32:53.003Z,22.94
2022-08-17T11:35:21.435Z,23.20
2022-08-17T11:38:29.341Z,23.16
2022-08-17T11:41:05.367Z,23.36
2022-08-17T11:43:53.581Z,23.47
2022-08-17T11:46:51.814Z,23.64
2022-08-17T11:49:46.718Z,23.66
2022-08-17T11:52:38.084Z,23.75
2022-08-17T11:55:31.779Z,23.76
2022-08-17T11:58:00.154Z,23.90
2022-08-17T12:00:44.612Z,23.95
2022-08-17T12:03:32.952Z,24.04
2022-08-17T12:06:07.048Z,24.11
2022-08-17T12:08:38.476Z,24.07
2022-08-17T12:11:12.452Z,24.08
2022-08-17T12:13:47.558Z,24.11
2022-08-17T12:16:16.782Z,24.05
2022-08-17T12:18:52.483Z,24.16
2022-08-17T12:21:37.416Z,24.22
2022-08-17T12:24:17.392Z,24.20
2022-08-17T12:26:52.471Z,24.31
2022-08-17T12:29:35.448Z,24.37
2022-08-17T12:32:06.977Z,24.30
2022-08-17T12:34:36.215Z,24.19
2022-08-17T12:37:07.510Z,24.30
2022-08-17T12:39:34.251Z,24.50
2022-08-17T12:42:02.639Z,24.59
2022-08-17T12:44:34.886Z,24.82
2022-08-17T12:47:22.633Z,25.14
2022-08-17T12:49:54.886Z,25.42
2022-08-17T12:52:28.946Z,25.59
2022-08-17T12:55:02.394Z,25.75
2022-08-17T12:57:37.941Z,25.73
2022-08-17T13:00:30.499Z,25.72
2022-08-17T13:03:03.326Z,26.00
2022-08-17T13:05:55.156Z,26.23
2022-08-17T13:08:32.127Z,25.97
2022-08-17T13:11:01.280Z,25.94
2022-08-17T13:13:31.288Z,26.01
2022-08-17T13:16:09.465Z,26.17
2022-08-17T13:18:41.982Z,26.15
2022-08-17T13:21:22.283Z,26.14
2022-08-17T13:24:10.746Z,26.25
2022-08-17T13:26:46.108Z,26.34
2022-08-17T13:29:51.169Z,26.53
2022-08-17T13:32:33.409Z,26.79
2022-08-17T13:35:14.363Z,26.93
2022-08-17T13:37:56.590Z,27.05
2022-08-17T13:40:22.981Z,27.07
2022-08-17T13:42:54.527Z,27.19
2022-08-17T13:45:35.456Z,27.31
2022-08-17T13:48:08.680Z,27.39
2022-08-17T13:50:40.718Z,27.47
2022-08-17T13:53:27.595Z,27.57
2022-08-17T13:55:58.257Z,27.62
2022-08-17T13:58:37.157Z,27.80
2022-08-17T14:01:41.905Z,27.85
2022-08-17T14:04:14.501Z,27.92
2022-08-17T14:07:01.448Z,27.86
2022-08-17T14:09:38.458Z,27.89
2022-08-17T14:12:21.601Z,27.94
2022-08-17T14:14:49.597Z,27.96
2022-08-17T14:17:16.062Z,27.86
2022-08-17T14:19:42.512Z,27.69
2022-08-17T14:22:18.172Z,27.73
2022-08-17T14:24:45.223Z,27.87
2022-08-17T14:27:17.592Z,27.87
2022-08-17T14:29:44.513Z,27.88
2022-08-17T14:32:21.981Z,28.05
2022-08-17T14:34:49.652Z,28.16
2022-08-17T14:37:21.217Z,28.06
2022-08-17T14:39:48.721Z,28.08
2022-08-17T14:42:15.522Z,28.24
2022-08-17T14:44:42.003Z,28.42
2022-08-17T14:47:13.727Z,28.44
2022-08-17T14:49:40.298Z,28.58
2022-08-17T14:52:06.777Z,28.71
2022-08-17T14:54:34.607Z,28.76
2022-08-17T14:57:23.262Z,28.97
2022-08-17T14:59:54.509Z,29.10
2022-08-17T15:02:30.679Z,29.23
2022-08-17T15:05:04.204Z,29.21
2022-08-17T15:07:31.650Z,28.91
2022-08-17T15:10:00.595Z,28.96
2022-08-17T15:12:32.227Z,28.87
2022-08-17T15:15:00.832Z,28.82
2022-08-17T15:17:27.487Z,28.85
2022-08-17T15:20:18.022Z,28.89
2022-08-17T15:22:45.905Z,29.01
2022-08-17T15:25:13.902Z,29.02
2022-08-17T15:27:41.383Z,29.08
2022-08-17T15:30:09.877Z,28.82
2022-08-17T15:32:39.322Z,28.93
2022-08-17T15:35:07.853Z,28.97
2022-08-17T15:37:36.314Z,29.03
2022-08-17T15:40:03.834Z,28.96
2022-08-17T15:42:30.351Z,29.06
2022-08-17T15:44:57.030Z,29.11
2022-08-17T15:47:24.368Z,29.07
2022-08-17T15:49:50.938Z,28.79
2022-08-17T15:52:24.104Z,28.75
2022-08-17T15:54:56.186Z,28.71
2022-08-17T15:57:25.660Z,28.80
2022-08-17T15:59:58.949Z,28.77
2022-08-17T16:03:14.084Z,28.71
2022-08-17T16:05:24.992Z,28.77
2022-08-17T16:07:52.230Z,28.75
2022-08-17T16:10:19.516Z,28.80
2022-08-17T16:12:50.176Z,28.86
2022-08-17T16:15:17.384Z,28.79
2022-08-17T16:17:43.854Z,28.75
2022-08-17T16:20:20.626Z,28.54
2022-08-17T16:22:49.149Z,28.38
2022-08-17T16:25:19.473Z,28.32
2022-08-17T16:27:49.142Z,28.30
2022-08-17T16:30:17.597Z,28.38
2022-08-17T16:32:45.339Z,28.37
2022-08-17T16:35:17.240Z,28.29
2022-08-17T16:37:45.619Z,28.32
2022-08-17T16:40:15.207Z,28.23
2022-08-17T16:42:43.164Z,28.18
2022-08-17T16:45:14.609Z,28.18
2022-08-17T16:47:41.925Z,28.13
2022-08-17T16:50:11.665Z,28.15
2022-08-17T16:52:40.327Z,28.13
2022-08-17T16:55:09.356Z,28.02
2022-08-17T16:57:47.595Z,27.87
2022-08-17T17:00:18.242Z,27.79
2022-08-17T17:02:47.379Z,27.79
2022-08-17T17:05:22.534Z,27.74
2022-08-17T17:08:01.001Z,27.80
2022-08-17T17:10:44.382Z,27.78
2022-08-17T17:13:32.867Z,27.79
2022-08-17T17:16:17.120Z,27.76
2022-08-17T17:19:04.314Z,27.66
2022-08-17T17:21:43.561Z,27.60
2022-08-17T17:24:15.346Z,27.62
2022-08-17T17:26:55.140Z,27.60
2022-08-17T17:29:47.289Z,27.61
2022-08-17T17:32:21.599Z,27.63
2022-08-17T17:34:53.990Z,27.62
2022-08-17T17:37:27.214Z,27.60
2022-08-17T17:39:58.721Z,27.60
2022-08-17T17:42:31.376Z,27.58
2022-08-17T17:45:31.183Z,27.54
2022-08-17T17:47:57.704Z,27.51
2022-08-17T17:50:43.296Z,27.43
2022-08-17T17:53:35.188Z,27.47
2022-08-17T17:56:43.007Z,27.46
2022-08-17T17:59:27.616Z,27.40
2022-08-17T18:02:07.624Z,27.37
2022-08-17T18:05:00.871Z,27.40
2022-08-17T18:07:40.863Z,27.28
2022-08-17T18:10:30.073Z,27.04
2022-08-17T18:13:32.624Z,26.99
2022-08-17T18:16:00.969Z,26.89
2022-08-17T18:18:37.735Z,26.83
2022-08-17T18:21:19.175Z,26.83
2022-08-17T18:23:54.678Z,26.82
2022-08-17T18:26:45.023Z,26.86
2022-08-17T18:29:35.779Z,26.78
2022-08-17T18:32:15.340Z,26.64
2022-08-17T18:34:47.531Z,26.51
2022-08-17T18:37:31.941Z,26.48
2022-08-17T18:39:58.587Z,26.37
2022-08-17T18:42:27.427Z,26.32
2022-08-17T18:44:55.587Z,26.27
2022-08-17T18:47:25.088Z,26.23
2022-08-17T18:49:58.185Z,26.26
2022-08-17T18:52:32.645Z,26.22
2022-08-17T18:55:22.111Z,26.23
2022-08-17T18:57:54.876Z,26.27
2022-08-17T19:00:41.774Z,26.29
2022-08-17T19:03:20.403Z,26.30
2022-08-17T19:05:52.285Z,26.32
2022-08-17T19:08:24.456Z,26.31
2022-08-17T19:10:55.648Z,26.22
2022-08-17T19:13:36.829Z,26.25
2022-08-17T19:16:17.445Z,26.26
2022-08-17T19:18:48.469Z,26.20
2022-08-17T19:21:40.264Z,26.09
2022-08-17T19:24:06.722Z,26.03
2022-08-17T19:26:54.309Z,25.94
2022-08-17T19:29:32.154Z,25.96
2022-08-17T19:32:01.607Z,25.99
2022-08-17T19:34:34.082Z,26.00
2022-08-17T19:37:13.017Z,26.01
2022-08-17T19:39:55.185Z,25.99
2022-08-17T19:42:31.421Z,25.98
2022-08-17T19:45:15.770Z,26.03
2022-08-17T19:48:20.025Z,26.03
2022-08-17T19:50:58.861Z,25.95
2022-08-17T19:53:54.052Z,25.96
2022-08-17T19:56:35.580Z,25.93
2022-08-17T19:59:21.964Z,25.91
2022-08-17T20:02:03.005Z,25.89
2022-08-17T20:04:31.884Z,25.78
2022-08-17T20:07:26.496Z,25.77
2022-08-17T20:10:04.874Z,25.65
2022-08-17T20:12:36.414Z,25.63
2022-08-17T20:15:13.856Z,25.60
2022-08-17T20:17:44.937Z,25.36
2022-08-17T20:21:05.360Z,25.17
2022-08-17T20:23:45.126Z,25.13
2022-08-17T20:26:18.920Z,25.16
2022-08-17T20:29:13.744Z,25.20
2022-08-17T20:31:55.202Z,25.08
2022-08-17T20:34:36.797Z,24.93
2022-08-17T20:37:13.135Z,24.77
2022-08-17T20:39:52.618Z,24.70
2022-08-17T20:42:22.102Z,24.67
2022-08-17T20:44:52.333Z,24.63
2022-08-17T20:48:00.927Z,24.66
2022-08-17T20:50:39.237Z,24.72
2022-08-17T20:53:09.201Z,24.72
2022-08-17T20:55:35.803Z,24.64
2022-08-17T20:58:24.683Z,24.55
2022-08-17T21:00:57.172Z,24.44
2022-08-17T21:03:23.699Z,24.43
2022-08-17T21:06:00.412Z,24.41
2022-08-17T21:08:55.159Z,24.27
2022-08-17T21:12:02.654Z,24.20
2022-08-17T21:14:28.650Z,24.05
2022-08-17T21:17:41.917Z,23.97
2022-08-17T21:20:25.265Z,23.99
2022-08-17T21:23:25.621Z,23.93
2022-08-17T21:26:17.411Z,23.98
2022-08-17T21:29:00.041Z,23.99
2022-08-17T21:31:27.847Z,23.87
2022-08-17T21:34:14.817Z,23.90
2022-08-17T21:36:43.165Z,23.82
2022-08-17T21:39:14.962Z,23.86
2022-08-17T21:41:48.303Z,23.76
2022-08-17T21:44:17.501Z,23.65
2022-08-17T21:46:47.326Z,23.72
2022-08-17T21:49:17.705Z,23.55
2022-08-17T21:51:50.946Z,23.55
2022-08-17T21:54:30.853Z,23.54
2022-08-17T21:57:01.386Z,23.55
2022-08-17T21:59:34.623Z,23.52
2022-08-17T22:02:07.367Z,23.51
2022-08-17T22:04:39.606Z,23.54
2022-08-17T22:07:10.116Z,23.40
2022-08-17T22:09:50.024Z,23.43
2022-08-17T22:12:19.640Z,23.39
2022-08-17T22:14:56.111Z,23.28
2022-08-17T22:17:26.147Z,23.22
2022-08-17T22:19:54.891Z,23.14
2022-08-17T22:22:26.297Z,23.10
2022-08-17T22:24:59.557Z,22.96
2022-08-17T22:27:46.654Z,22.99
2022-08-17T22:30:18.640Z,22.91
2022-08-17T22:32:49.203Z,22.84
2022-08-17T22:35:31.366Z,22.77
2022-08-17T22:38:20.639Z,22.75
2022-08-17T22:40:50.910Z,22.70
2022-08-17T22:43:28.617Z,22.64
2022-08-17T22:45:58.908Z,22.54
2022-08-17T22:48:28.053Z,22.39
2022-08-17T22:51:30.909Z,22.32
2022-08-17T22:54:31.208Z,22.18
2022-08-17T22:57:22.703Z,22.08
2022-08-17T22:59:52.858Z,22.00
2022-08-17T23:02:21.676Z,21.91
2022-08-17T23:05:12.978Z,22.17
2022-08-17T23:07:42.391Z,22.05
2022-08-17T23:10:10.946Z,21.96
2022-08-17T23:12:39.577Z,21.94
2022-08-17T23:15:14.223Z,21.82
2022-08-17T23:17:42.022Z,21.68
2022-08-17T23:20:12.284Z,21.57
2022-08-17T23:22:51.952Z,21.47
2022-08-17T23:25:26.345Z,21.29
2022-08-17T23:27:53.091Z,21.29
2022-08-17T23:30:20.082Z,21.10
2022-08-17T23:32:53.595Z,20.95
2022-08-17T23:35:20.840Z,21.02
2022-08-17T23:38:07.605Z,21.02
2022-08-17T23:40:34.193Z,20.92
2022-08-17T23:43:00.675Z,20.99
2022-08-17T23:45:31.062Z,20.94
2022-08-17T23:47:57.765Z,20.86
2022-08-17T23:50:25.038Z,20.64
2022-08-17T23:52:57.575Z,20.72
2022-08-17T23:55:24.025Z,20.82
2022-08-17T23:57:50.703Z,20.86
